Avignon, France
Current Conditions -  °F | °C
As of 1:30 AM on Sunday 26 Oct 2014 (Local Time) from LFMV Reporting Station
Broken Clouds Broken Clouds  
Wind Chill: 61°   Ceiling: 10000
Heat Index: 61°   Visibility: 6mi
Dew Point: 52°   Wind: 12mph
Humidity: 72%   Direction: 340°NNW
Pressure: 30.12"   Gusts: NA
Location:  43.95°N, 4.81°E
Report Text: LFMV 252330Z AUTO 34010KT 9999 SCT080 BKN100 16/11 Q1020
Loading
Personal Weather Stations






























Interactive Weather Map
Tropical Storm Tracking
New forecast layout! Learn more

10-Day Weather Forecast

Advertisements
Track Severe Weather on mobile